Time;durP1;ratioP1;P1;durP2;ratioP2;P2;SDS_P1;SDS_P2;PMS_P1;PMS_P2;Temp;Humidity;BMP_temperature;BMP_pressure;BME280_temperature;BME280_humidity;BME280_pressure;Samples;Min_cycle;Max_cycle;Signal;HPM_P1;HPM_P2
2024/04/18 00:02:00;;;;;;;4.25;2.67;;;;;;;;;;1924796;74;21038;-47
2024/04/18 00:04:29;;;;;;;4.22;2.60;;;;;;;;;;1924576;74;21003;-47
2024/04/18 00:06:59;;;;;;;4.22;2.47;;;;;;;;;;1924459;73;21145;-44
2024/04/18 00:09:27;;;;;;;3.60;2.67;;;;;;;;;;1924642;74;21105;-45
2024/04/18 00:11:56;;;;;;;4.97;2.45;;;;;;;;;;1924645;74;21003;-47
2024/04/18 00:14:26;;;;;;;6.87;3.00;;;;;;;;;;1921641;74;21051;-45
2024/04/18 00:16:56;;;;;;;5.45;3.10;;;;;;;;;;1921547;74;21038;-47
2024/04/18 00:19:25;;;;;;;4.85;3.17;;;;;;;;;;1924718;74;21007;-46
2024/04/18 00:22:00;;;;;;;5.83;2.87;;;;;;;;;;1924796;74;21108;-46
2024/04/18 00:24:29;;;;;;;6.05;2.70;;;;;;;;;;1924625;74;20991;-45
2024/04/18 00:26:58;;;;;;;3.83;2.58;;;;;;;;;;1924608;74;21038;-46
2024/04/18 00:29:36;;;;;;;4.50;3.02;;;;;;;;;;1924638;74;21027;-44
2024/04/18 00:32:11;;;;;;;3.22;2.35;;;;;;;;;;1924620;74;21027;-45
2024/04/18 00:34:42;;;;;;;4.42;2.80;;;;;;;;;;1921302;74;21106;-47
2024/04/18 00:37:12;;;;;;;14.05;3.75;;;;;;;;;;1907616;74;21046;-45
2024/04/18 00:39:59;;;;;;;5.12;2.60;;;;;;;;;;1905286;75;21514;-45
2024/04/18 00:42:39;;;;;;;7.83;2.50;;;;;;;;;;1905606;75;21012;-45
2024/04/18 00:45:08;;;;;;;6.33;2.80;;;;;;;;;;1905411;75;21035;-45
2024/04/18 00:47:47;;;;;;;5.28;2.98;;;;;;;;;;1905392;75;21031;-45
2024/04/18 00:50:16;;;;;;;4.60;3.40;;;;;;;;;;1905358;75;21391;-45
2024/04/18 00:52:46;;;;;;;7.05;2.85;;;;;;;;;;1905416;75;21082;-47
2024/04/18 00:55:28;;;;;;;4.55;3.12;;;;;;;;;;1905478;75;21141;-46
2024/04/18 00:58:12;;;;;;;6.50;3.20;;;;;;;;;;1905598;75;21032;-46
2024/04/18 01:00:45;;;;;;;6.67;3.30;;;;;;;;;;1905390;75;21101;-46
2024/04/18 01:03:31;;;;;;;7.28;3.85;;;;;;;;;;1905412;75;22103;-46
2024/04/18 01:06:07;;;;;;;6.70;3.33;;;;;;;;;;1905360;75;21047;-46
2024/04/18 01:08:54;;;;;;;6.15;4.03;;;;;;;;;;1905272;75;21122;-46
2024/04/18 01:11:32;;;;;;;8.30;3.90;;;;;;;;;;1905362;75;21106;-46
2024/04/18 01:14:08;;;;;;;5.40;3.70;;;;;;;;;;1905277;75;21113;-46
2024/04/18 01:16:54;;;;;;;7.55;4.12;;;;;;;;;;1905302;75;21039;-45
2024/04/18 01:19:23;;;;;;;5.53;3.55;;;;;;;;;;1905358;75;21032;-46
2024/04/18 01:21:52;;;;;;;8.98;3.60;;;;;;;;;;1905283;75;21019;-46
2024/04/18 01:24:21;;;;;;;7.58;3.27;;;;;;;;;;1905316;75;21011;-45
2024/04/18 01:26:50;;;;;;;7.70;3.58;;;;;;;;;;1905426;75;21002;-45
2024/04/18 01:29:18;;;;;;;7.45;3.95;;;;;;;;;;1905387;75;21089;-45
2024/04/18 01:32:05;;;;;;;12.30;3.70;;;;;;;;;;1905270;75;21019;-44
2024/04/18 01:34:34;;;;;;;7.17;3.58;;;;;;;;;;1905302;75;21032;-45
2024/04/18 01:37:19;;;;;;;5.95;3.70;;;;;;;;;;1905573;74;21133;-45
2024/04/18 01:39:47;;;;;;;5.33;3.42;;;;;;;;;;1905399;75;21051;-44
2024/04/18 01:42:15;;;;;;;7.05;3.58;;;;;;;;;;1905288;75;21035;-44
2024/04/18 01:44:49;;;;;;;4.12;2.92;;;;;;;;;;1905298;75;21028;-44
2024/04/18 01:47:32;;;;;;;4.97;3.15;;;;;;;;;;1905435;75;21117;-44
2024/04/18 01:50:10;;;;;;;7.97;3.08;;;;;;;;;;1905367;75;21114;-45
2024/04/18 01:52:39;;;;;;;11.35;3.52;;;;;;;;;;1905382;75;21097;-48
2024/04/18 01:55:08;;;;;;;6.12;3.50;;;;;;;;;;1905397;75;21020;-48
2024/04/18 01:57:37;;;;;;;7.87;3.58;;;;;;;;;;1905416;75;21067;-47
2024/04/18 02:00:24;;;;;;;11.83;3.70;;;;;;;;;;1905420;75;21019;-47
2024/04/18 02:02:52;;;;;;;7.95;4.25;;;;;;;;;;1905378;75;21090;-46
2024/04/18 02:05:39;;;;;;;7.12;3.45;;;;;;;;;;1905320;75;21482;-45
2024/04/18 02:08:17;;;;;;;6.65;2.98;;;;;;;;;;1905323;75;21090;-45
2024/04/18 02:10:51;;;;;;;4.37;3.00;;;;;;;;;;1905337;75;21040;-45
2024/04/18 02:13:38;;;;;;;7.67;3.60;;;;;;;;;;1905307;75;21106;-45
2024/04/18 02:16:06;;;;;;;5.75;2.90;;;;;;;;;;1905317;75;21031;-45
2024/04/18 02:18:52;;;;;;;5.65;4.08;;;;;;;;;;1905338;75;21031;-44
2024/04/18 02:21:21;;;;;;;6.25;3.30;;;;;;;;;;1905306;75;21105;-45
2024/04/18 02:23:52;;;;;;;6.92;3.02;;;;;;;;;;1905386;75;21628;-45
2024/04/18 02:26:21;;;;;;;6.28;3.40;;;;;;;;;;1905274;75;21090;-45
2024/04/18 02:28:50;;;;;;;4.67;2.98;;;;;;;;;;1905325;75;21031;-45
2024/04/18 02:31:18;;;;;;;5.80;3.20;;;;;;;;;;1905352;75;21007;-45
2024/04/18 02:33:54;;;;;;;5.22;2.90;;;;;;;;;;1905542;75;21032;-44
2024/04/18 02:36:24;;;;;;;8.48;3.62;;;;;;;;;;1905542;74;21032;-44
2024/04/18 02:38:53;;;;;;;10.25;3.80;;;;;;;;;;1924757;74;21038;-45
2024/04/18 02:41:21;;;;;;;7.80;3.40;;;;;;;;;;1924709;74;21027;-44
2024/04/18 02:43:53;;;;;;;13.80;3.47;;;;;;;;;;1924776;74;21104;-44
2024/04/18 02:46:22;;;;;;;5.20;3.00;;;;;;;;;;1924828;74;21030;-45
2024/04/18 02:49:09;;;;;;;12.85;3.25;;;;;;;;;;1924732;74;21514;-45
2024/04/18 02:51:59;;;;;;;8.73;3.60;;;;;;;;;;1924818;74;21027;-45
2024/04/18 02:54:44;;;;;;;9.80;3.10;;;;;;;;;;1922730;74;21106;-44
2024/04/18 02:57:13;;;;;;;16.52;4.17;;;;;;;;;;1924782;74;21064;-45
2024/04/18 02:59:41;;;;;;;7.30;3.90;;;;;;;;;;1924710;74;21058;-45
2024/04/18 03:02:24;;;;;;;8.10;4.22;;;;;;;;;;1924750;74;21023;-45
2024/04/18 03:04:52;;;;;;;10.90;3.70;;;;;;;;;;1924428;74;21119;-44
2024/04/18 03:07:23;;;;;;;9.63;3.45;;;;;;;;;;1924578;74;21169;-45
2024/04/18 03:09:53;;;;;;;15.00;4.17;;;;;;;;;;1924784;74;21117;-43
2024/04/18 03:12:28;;;;;;;6.55;3.47;;;;;;;;;;1924775;74;21108;-45
2024/04/18 03:15:15;;;;;;;6.20;2.90;;;;;;;;;;1924890;74;21478;-44
2024/04/18 03:17:45;;;;;;;9.20;2.83;;;;;;;;;;1921355;74;21102;-45
2024/04/18 03:20:15;;;;;;;8.98;3.47;;;;;;;;;;1921673;74;21034;-45
2024/04/18 03:22:45;;;;;;;6.62;3.30;;;;;;;;;;1921601;74;21011;-44
2024/04/18 03:25:14;;;;;;;11.08;3.37;;;;;;;;;;1924686;74;21034;-44
2024/04/18 03:27:44;;;;;;;3.22;2.92;;;;;;;;;;1921666;74;21106;-45
2024/04/18 03:30:13;;;;;;;6.72;2.55;;;;;;;;;;1924736;74;21019;-44
2024/04/18 03:32:43;;;;;;;5.95;3.27;;;;;;;;;;1921431;74;21088;-45
2024/04/18 03:35:12;;;;;;;7.35;3.42;;;;;;;;;;1924697;74;21171;-45
2024/04/18 03:37:40;;;;;;;8.88;3.77;;;;;;;;;;1917911;74;21036;-45
2024/04/18 03:40:28;;;;;;;6.55;3.00;;;;;;;;;;1905384;75;21132;-45
2024/04/18 03:43:03;;;;;;;7.65;2.58;;;;;;;;;;1905532;75;21043;-45
2024/04/18 03:45:31;;;;;;;2.70;2.45;;;;;;;;;;1905273;75;21081;-45
2024/04/18 03:48:18;;;;;;;14.23;3.58;;;;;;;;;;1905342;75;21540;-44
2024/04/18 03:50:47;;;;;;;11.95;3.17;;;;;;;;;;1905379;75;21011;-44
2024/04/18 03:53:22;;;;;;;8.03;2.62;;;;;;;;;;1905483;75;21412;-45
2024/04/18 03:56:09;;;;;;;11.05;2.67;;;;;;;;;;1905330;75;21137;-45
2024/04/18 03:58:37;;;;;;;8.38;2.67;;;;;;;;;;1905327;74;21083;-44
2024/04/18 04:01:06;;;;;;;6.87;2.70;;;;;;;;;;1905344;75;20980;-45
2024/04/18 04:03:34;;;;;;;10.63;3.52;;;;;;;;;;1905304;75;21011;-45
2024/04/18 04:06:03;;;;;;;8.48;3.02;;;;;;;;;;1905346;75;21032;-45
2024/04/18 04:08:32;;;;;;;7.17;3.00;;;;;;;;;;1905281;75;21031;-45
2024/04/18 04:11:13;;;;;;;10.43;2.75;;;;;;;;;;1905354;74;21023;-45
2024/04/18 04:13:42;;;;;;;12.55;3.33;;;;;;;;;;1905458;75;21183;-45
2024/04/18 04:16:14;;;;;;;6.72;3.12;;;;;;;;;;1895701;74;21060;-45
2024/04/18 04:18:43;;;;;;;7.05;3.08;;;;;;;;;;1905370;75;21007;-45
2024/04/18 04:21:30;;;;;;;9.08;3.40;;;;;;;;;;1905317;75;21602;-45
2024/04/18 04:23:58;;;;;;;8.38;4.65;;;;;;;;;;1905355;75;21067;-45
2024/04/18 04:26:33;;;;;;;8.38;3.60;;;;;;;;;;1903198;75;21050;-45
2024/04/18 04:28:58;;;;;;;6.03;2.90;;;;;;;;;;1905132;74;21553;-45
2024/04/18 04:31:28;;;;;;;12.28;3.25;;;;;;;;;;1905396;75;21028;-45
2024/04/18 04:33:57;;;;;;;23.45;3.22;;;;;;;;;;1905295;75;21089;-45
2024/04/18 04:36:26;;;;;;;7.95;2.77;;;;;;;;;;1905447;74;21020;-45
2024/04/18 04:38:55;;;;;;;6.67;2.77;;;;;;;;;;1917902;74;21047;-45
2024/04/18 04:41:26;;;;;;;7.47;2.77;;;;;;;;;;1922982;74;21034;-44
2024/04/18 04:43:54;;;;;;;12.65;3.83;;;;;;;;;;1924658;74;21109;-44
2024/04/18 04:46:23;;;;;;;8.38;3.47;;;;;;;;;;1924785;74;21050;-45
2024/04/18 04:48:54;;;;;;;15.28;4.40;;;;;;;;;;1921624;74;21047;-45
2024/04/18 04:51:23;;;;;;;8.83;4.10;;;;;;;;;;1924735;74;21031;-45
2024/04/18 04:53:53;;;;;;;17.35;3.98;;;;;;;;;;1923481;74;21038;-44
2024/04/18 04:56:23;;;;;;;11.05;4.80;;;;;;;;;;1921698;74;21039;-45
2024/04/18 04:58:54;;;;;;;7.40;3.83;;;;;;;;;;1921451;74;21034;-44
2024/04/18 05:01:22;;;;;;;9.20;5.03;;;;;;;;;;1924661;74;21474;-44
2024/04/18 05:03:52;;;;;;;12.10;4.22;;;;;;;;;;1923917;74;21034;-44
2024/04/18 05:06:27;;;;;;;7.70;4.35;;;;;;;;;;1924823;74;21023;-45
2024/04/18 05:09:15;;;;;;;18.10;5.80;;;;;;;;;;1924727;74;21030;-44
2024/04/18 05:11:45;;;;;;;19.10;5.42;;;;;;;;;;1924646;74;21104;-44
2024/04/18 05:14:23;;;;;;;13.90;4.53;;;;;;;;;;1904454;74;21051;-45
2024/04/18 05:16:51;;;;;;;27.10;6.65;;;;;;;;;;1924628;74;21441;-45
2024/04/18 05:19:23;;;;;;;18.40;6.72;;;;;;;;;;1924603;74;21019;-44
2024/04/18 05:21:52;;;;;;;16.77;7.37;;;;;;;;;;1924628;74;21582;-45
2024/04/18 05:24:35;;;;;;;23.32;7.80;;;;;;;;;;1924626;74;21027;-45
2024/04/18 05:27:04;;;;;;;31.05;8.98;;;;;;;;;;1924677;74;21100;-44
2024/04/18 05:32:20;;;;;;;16.87;6.78;;;;;;;;;;1924733;74;21043;-45
2024/04/18 05:35:06;;;;;;;11.00;4.55;;;;;;;;;;1924812;74;21473;-47
2024/04/18 05:37:35;;;;;;;10.90;4.03;;;;;;;;;;1924753;74;21011;-48
2024/04/18 05:40:04;;;;;;;10.63;3.70;;;;;;;;;;1924920;74;21026;-47
2024/04/18 05:42:32;;;;;;;16.32;9.58;;;;;;;;;;1924632;74;21102;-47
2024/04/18 05:45:10;;;;;;;9.93;5.22;;;;;;;;;;1924654;74;21019;-47
2024/04/18 05:47:57;;;;;;;14.90;7.58;;;;;;;;;;1924604;74;21120;-46
2024/04/18 05:50:26;;;;;;;11.15;5.95;;;;;;;;;;1924560;74;21113;-46
2024/04/18 05:52:55;;;;;;;9.30;4.87;;;;;;;;;;1924546;74;20975;-46
2024/04/18 05:55:24;;;;;;;7.22;3.67;;;;;;;;;;1924705;74;21070;-48
2024/04/18 05:57:52;;;;;;;13.32;3.65;;;;;;;;;;1924705;74;21074;-46
2024/04/18 06:00:39;;;;;;;7.33;4.12;;;;;;;;;;1924553;74;21155;-46
2024/04/18 06:03:07;;;;;;;9.33;3.60;;;;;;;;;;1924656;74;21026;-45
2024/04/18 06:05:37;;;;;;;13.50;3.40;;;;;;;;;;1924555;74;21019;-45
2024/04/18 06:08:15;;;;;;;12.82;3.87;;;;;;;;;;1924641;74;21027;-46
2024/04/18 06:10:43;;;;;;;7.67;3.70;;;;;;;;;;1924644;74;21026;-46
2024/04/18 06:13:25;;;;;;;6.65;3.90;;;;;;;;;;1924640;74;21026;-45
2024/04/18 06:15:53;;;;;;;12.75;3.85;;;;;;;;;;1924631;74;21145;-46
2024/04/18 06:18:21;;;;;;;31.70;5.75;;;;;;;;;;1924639;74;21496;-45
2024/04/18 06:20:50;;;;;;;21.80;4.00;;;;;;;;;;1924527;74;21022;-46
2024/04/18 06:23:19;;;;;;;11.28;2.87;;;;;;;;;;1924572;74;21140;-46
2024/04/18 06:25:49;;;;;;;10.95;2.50;;;;;;;;;;1921383;74;21196;-45
2024/04/18 06:28:18;;;;;;;8.30;2.62;;;;;;;;;;1924434;74;21027;-46
2024/04/18 06:30:47;;;;;;;4.83;2.62;;;;;;;;;;1924665;74;21103;-45
2024/04/18 06:33:15;;;;;;;6.40;1.92;;;;;;;;;;1924435;74;21031;-45
2024/04/18 06:35:44;;;;;;;3.67;1.95;;;;;;;;;;1924515;74;21026;-46
2024/04/18 06:38:12;;;;;;;8.75;2.20;;;;;;;;;;1924553;74;20991;-45
2024/04/18 06:40:41;;;;;;;6.80;2.27;;;;;;;;;;1924474;74;21163;-45
2024/04/18 06:43:10;;;;;;;6.95;2.62;;;;;;;;;;1924585;74;21011;-45
2024/04/18 06:45:38;;;;;;;6.78;2.25;;;;;;;;;;1924614;74;21019;-46
2024/04/18 06:48:10;;;;;;;9.55;3.25;;;;;;;;;;1924605;74;21106;-46
2024/04/18 06:50:39;;;;;;;6.97;2.50;;;;;;;;;;1924679;74;21148;-46
2024/04/18 06:53:08;;;;;;;9.93;2.65;;;;;;;;;;1924595;74;21014;-45
2024/04/18 06:55:36;;;;;;;8.75;2.58;;;;;;;;;;1924728;74;21031;-46
2024/04/18 06:58:05;;;;;;;5.22;2.60;;;;;;;;;;1924646;74;21015;-46
2024/04/18 07:00:35;;;;;;;10.50;3.10;;;;;;;;;;1924725;74;21010;-45
2024/04/18 07:03:04;;;;;;;10.05;4.12;;;;;;;;;;1924638;74;21018;-46
2024/04/18 07:05:50;;;;;;;7.12;3.20;;;;;;;;;;1924584;74;21027;-45
2024/04/18 07:08:22;;;;;;;2.47;2.27;;;;;;;;;;1924618;74;21100;-46
2024/04/18 07:10:50;;;;;;;6.28;2.60;;;;;;;;;;1924637;74;21035;-45
2024/04/18 07:13:31;;;;;;;6.83;2.30;;;;;;;;;;1924638;74;20999;-46
2024/04/18 07:16:03;;;;;;;4.60;2.33;;;;;;;;;;1924728;74;21159;-45
2024/04/18 07:18:49;;;;;;;10.03;2.37;;;;;;;;;;1924896;74;21114;-45
2024/04/18 07:21:18;;;;;;;5.95;2.40;;;;;;;;;;1924677;74;21038;-46
2024/04/18 07:23:47;;;;;;;7.55;2.65;;;;;;;;;;1924620;74;21164;-45
2024/04/18 07:26:17;;;;;;;6.50;2.55;;;;;;;;;;1921488;74;21129;-45
2024/04/18 07:28:47;;;;;;;3.62;2.40;;;;;;;;;;1914440;74;21063;-45
2024/04/18 07:31:15;;;;;;;2.83;2.17;;;;;;;;;;1909861;73;21026;-46
2024/04/18 07:33:45;;;;;;;5.50;2.15;;;;;;;;;;1903529;73;21025;-46
2024/04/18 07:36:21;;;;;;;6.67;2.40;;;;;;;;;;1902321;73;21034;-45
2024/04/18 07:38:47;;;;;;;4.22;2.27;;;;;;;;;;1901562;74;21019;-45
2024/04/18 07:41:17;;;;;;;5.08;3.35;;;;;;;;;;1930200;73;21116;-44
2024/04/18 07:43:45;;;;;;;4.85;2.10;;;;;;;;;;1927632;73;21092;-45
2024/04/18 07:46:14;;;;;;;5.83;2.75;;;;;;;;;;1958307;73;21171;-45
2024/04/18 07:48:43;;;;;;;5.08;1.77;;;;;;;;;;1935600;73;21093;-45
2024/04/18 07:51:11;;;;;;;3.83;2.15;;;;;;;;;;1945304;73;21112;-45
2024/04/18 07:53:41;;;;;;;9.13;3.02;;;;;;;;;;1958326;73;21042;-47
2024/04/18 07:56:09;;;;;;;3.02;2.25;;;;;;;;;;1957756;73;21155;-45
2024/04/18 07:58:38;;;;;;;7.42;2.80;;;;;;;;;;1958447;73;21022;-46
2024/04/18 08:01:11;;;;;;;9.93;2.83;;;;;;;;;;1932887;73;21026;-45
2024/04/18 08:03:41;;;;;;;14.23;3.95;;;;;;;;;;1920595;73;21504;-46
2024/04/18 08:06:07;;;;;;;5.55;2.75;;;;;;;;;;1902112;73;21080;-43
2024/04/18 08:08:35;;;;;;;5.17;2.90;;;;;;;;;;1896180;74;21447;-44
2024/04/18 08:11:08;;;;;;;2.12;1.62;;;;;;;;;;1899409;74;21237;-44
2024/04/18 08:13:34;;;;;;;4.62;2.30;;;;;;;;;;1892530;74;21020;-44
2024/04/18 08:16:03;;;;;;;8.03;2.77;;;;;;;;;;1898629;73;21128;-44
2024/04/18 08:18:33;;;;;;;6.30;2.75;;;;;;;;;;1918084;74;21012;-44
2024/04/18 08:21:02;;;;;;;8.33;2.62;;;;;;;;;;1910178;74;21028;-45
2024/04/18 08:23:31;;;;;;;6.12;2.98;;;;;;;;;;1901611;74;21031;-45
2024/04/18 08:25:59;;;;;;;15.32;3.15;;;;;;;;;;1925950;73;21091;-44
2024/04/18 08:28:28;;;;;;;8.73;3.00;;;;;;;;;;1924540;74;20990;-44
2024/04/18 08:30:57;;;;;;;6.30;3.83;;;;;;;;;;1915705;74;20983;-44
2024/04/18 08:33:25;;;;;;;9.45;6.10;;;;;;;;;;1906215;74;21124;-44
2024/04/18 08:35:54;;;;;;;6.22;2.90;;;;;;;;;;1910358;74;21204;-44
2024/04/18 08:38:22;;;;;;;16.87;3.72;;;;;;;;;;1908423;74;21067;-45
2024/04/18 08:40:52;;;;;;;9.28;3.80;;;;;;;;;;1906197;73;21055;-44
2024/04/18 08:43:20;;;;;;;10.93;3.33;;;;;;;;;;1897441;75;21097;-44
2024/04/18 08:45:49;;;;;;;8.48;2.62;;;;;;;;;;1888150;75;21497;-44
2024/04/18 08:48:18;;;;;;;7.97;2.62;;;;;;;;;;1894581;75;21027;-44
2024/04/18 08:50:46;;;;;;;6.42;2.83;;;;;;;;;;1897615;75;21089;-44
2024/04/18 08:53:15;;;;;;;12.47;2.40;;;;;;;;;;1887030;75;21034;-44
2024/04/18 08:55:45;;;;;;;24.80;3.40;;;;;;;;;;1883579;75;21093;-44
2024/04/18 08:58:14;;;;;;;9.23;3.02;;;;;;;;;;1904688;75;21095;-44
2024/04/18 09:00:42;;;;;;;5.95;2.33;;;;;;;;;;1891823;75;21074;-44
2024/04/18 09:03:11;;;;;;;10.45;3.00;;;;;;;;;;1903750;75;21145;-45
2024/04/18 09:05:40;;;;;;;5.35;2.30;;;;;;;;;;1903107;75;21074;-44
2024/04/18 09:08:15;;;;;;;4.17;2.87;;;;;;;;;;1886665;75;21164;-45
2024/04/18 09:10:43;;;;;;;6.62;2.40;;;;;;;;;;1884287;75;21062;-46
2024/04/18 09:13:12;;;;;;;7.67;2.35;;;;;;;;;;1887649;75;21023;-45
2024/04/18 09:15:40;;;;;;;3.72;2.10;;;;;;;;;;1874731;75;21142;-47
2024/04/18 09:18:09;;;;;;;30.37;18.20;;;;;;;;;;1889730;75;21146;-45
2024/04/18 09:20:43;;;;;;;12.20;4.67;;;;;;;;;;1888722;75;21016;-45
2024/04/18 09:23:12;;;;;;;25.92;5.45;;;;;;;;;;1887353;75;21023;-47
2024/04/18 09:25:41;;;;;;;12.07;3.15;;;;;;;;;;1881945;75;21114;-44
2024/04/18 09:28:09;;;;;;;10.48;3.40;;;;;;;;;;1886872;75;21275;-46
2024/04/18 09:30:39;;;;;;;7.15;2.65;;;;;;;;;;1883824;75;21032;-45
2024/04/18 09:33:08;;;;;;;4.87;2.75;;;;;;;;;;1883755;75;21107;-46
2024/04/18 09:35:37;;;;;;;6.17;2.40;;;;;;;;;;1879860;75;21153;-45
2024/04/18 09:38:11;;;;;;;7.92;2.45;;;;;;;;;;1880876;75;21174;-45
2024/04/18 09:40:42;;;;;;;5.87;2.65;;;;;;;;;;1885838;75;21090;-44
2024/04/18 09:43:12;;;;;;;5.62;2.60;;;;;;;;;;1884728;75;21728;-45
2024/04/18 09:45:43;;;;;;;7.83;3.37;;;;;;;;;;1888117;74;21021;-46
2024/04/18 09:48:12;;;;;;;11.15;3.30;;;;;;;;;;1892884;74;21404;-45
2024/04/18 09:50:41;;;;;;;11.75;3.12;;;;;;;;;;1886865;75;21033;-45
2024/04/18 09:53:11;;;;;;;7.22;2.75;;;;;;;;;;1887030;75;21158;-45
2024/04/18 09:55:41;;;;;;;12.53;3.30;;;;;;;;;;1889065;75;21552;-44
2024/04/18 09:58:10;;;;;;;8.33;2.77;;;;;;;;;;1890954;75;21471;-45
2024/04/18 10:00:39;;;;;;;11.53;3.17;;;;;;;;;;1885731;75;21106;-45
2024/04/18 10:03:09;;;;;;;8.83;2.95;;;;;;;;;;1884798;75;21029;-44
2024/04/18 10:05:39;;;;;;;5.33;2.58;;;;;;;;;;1892000;75;21090;-44
2024/04/18 10:08:10;;;;;;;9.63;3.40;;;;;;;;;;1880719;75;21074;-45
2024/04/18 10:10:39;;;;;;;5.20;2.50;;;;;;;;;;1884330;75;21156;-44
2024/04/18 10:13:08;;;;;;;5.35;2.40;;;;;;;;;;1890828;75;21064;-44
2024/04/18 10:15:37;;;;;;;11.40;3.00;;;;;;;;;;1883346;75;21110;-44
2024/04/18 10:18:18;;;;;;;9.83;3.05;;;;;;;;;;1879025;75;21147;-44
2024/04/18 10:20:47;;;;;;;11.00;3.55;;;;;;;;;;1886554;75;21076;-44
2024/04/18 10:23:16;;;;;;;9.53;4.03;;;;;;;;;;1882433;75;21033;-44
2024/04/18 10:25:46;;;;;;;9.40;3.12;;;;;;;;;;1888131;74;21100;-43
2024/04/18 10:28:22;;;;;;;6.53;2.42;;;;;;;;;;1884373;75;21148;-44
2024/04/18 10:30:50;;;;;;;9.75;2.92;;;;;;;;;;1889290;75;21112;-45
2024/04/18 10:33:31;;;;;;;9.33;3.72;;;;;;;;;;1886951;75;21152;-44
2024/04/18 10:36:00;;;;;;;7.90;3.02;;;;;;;;;;1896478;75;21087;-44
2024/04/18 10:38:28;;;;;;;16.05;3.33;;;;;;;;;;1879217;75;21053;-44
2024/04/18 10:41:03;;;;;;;13.50;3.05;;;;;;;;;;1897506;75;21079;-45
2024/04/18 10:43:35;;;;;;;9.80;3.72;;;;;;;;;;1883174;75;21048;-46
2024/04/18 10:46:07;;;;;;;6.67;2.60;;;;;;;;;;1871411;77;21068;-45
2024/04/18 10:48:34;;;;;;;6.30;2.80;;;;;;;;;;1871638;76;21500;-44
2024/04/18 10:51:03;;;;;;;5.92;2.85;;;;;;;;;;1872031;77;21037;-45
2024/04/18 10:53:35;;;;;;;8.10;3.20;;;;;;;;;;1872122;77;21092;-44
2024/04/18 10:56:04;;;;;;;5.33;2.65;;;;;;;;;;1872140;76;20993;-46
2024/04/18 10:58:32;;;;;;;9.78;3.20;;;;;;;;;;1872135;77;21025;-45
2024/04/18 11:01:06;;;;;;;11.05;3.00;;;;;;;;;;1871869;77;21017;-45
2024/04/18 11:03:32;;;;;;;12.82;3.62;;;;;;;;;;1877934;75;21499;-44
2024/04/18 11:06:02;;;;;;;7.90;3.45;;;;;;;;;;1888887;75;21060;-45
2024/04/18 11:08:31;;;;;;;7.87;3.05;;;;;;;;;;1903313;75;21091;-45
2024/04/18 11:10:59;;;;;;;6.22;3.12;;;;;;;;;;1889485;75;21108;-45
2024/04/18 11:13:28;;;;;;;8.88;3.65;;;;;;;;;;1884737;75;21082;-45
2024/04/18 11:15:57;;;;;;;11.68;3.60;;;;;;;;;;1901373;75;21067;-46
2024/04/18 11:18:26;;;;;;;8.35;2.80;;;;;;;;;;1902681;75;21035;-46
2024/04/18 11:20:54;;;;;;;9.63;2.77;;;;;;;;;;1873684;75;21011;-45
2024/04/18 11:23:25;;;;;;;11.53;3.10;;;;;;;;;;1887972;75;21070;-44
2024/04/18 11:25:54;;;;;;;6.92;2.98;;;;;;;;;;1900255;75;21176;-44
2024/04/18 11:28:24;;;;;;;8.15;2.77;;;;;;;;;;1876249;75;21053;-45
2024/04/18 11:30:53;;;;;;;10.32;2.83;;;;;;;;;;1874856;75;21058;-44
2024/04/18 11:33:22;;;;;;;11.70;4.67;;;;;;;;;;1876798;75;21354;-46
2024/04/18 11:35:51;;;;;;;10.58;2.85;;;;;;;;;;1885643;75;21067;-45
2024/04/18 11:38:19;;;;;;;6.37;3.40;;;;;;;;;;1894977;75;21180;-46
2024/04/18 11:40:48;;;;;;;5.78;3.00;;;;;;;;;;1875728;75;21170;-44
2024/04/18 11:43:16;;;;;;;7.90;3.15;;;;;;;;;;1896537;75;21482;-45
2024/04/18 11:45:45;;;;;;;7.37;2.98;;;;;;;;;;1892790;75;21202;-44
2024/04/18 11:48:13;;;;;;;14.10;4.03;;;;;;;;;;1909724;75;21104;-45
2024/04/18 11:50:43;;;;;;;6.60;2.75;;;;;;;;;;1901923;75;21099;-45
2024/04/18 11:53:13;;;;;;;9.08;2.58;;;;;;;;;;1892226;75;21097;-45
2024/04/18 11:55:42;;;;;;;9.70;3.08;;;;;;;;;;1906428;75;20997;-44
2024/04/18 11:58:29;;;;;;;10.28;2.92;;;;;;;;;;1885712;75;21194;-45
2024/04/18 12:00:58;;;;;;;10.13;3.30;;;;;;;;;;1895153;75;21181;-45
2024/04/18 12:03:42;;;;;;;8.40;3.75;;;;;;;;;;1892149;75;21213;-45
2024/04/18 12:06:29;;;;;;;7.12;3.27;;;;;;;;;;1898932;75;21032;-45
2024/04/18 12:08:57;;;;;;;12.98;3.15;;;;;;;;;;1894364;75;21100;-45
2024/04/18 12:11:30;;;;;;;8.30;3.45;;;;;;;;;;1897639;75;21157;-46
2024/04/18 12:14:14;;;;;;;7.33;2.58;;;;;;;;;;1900133;75;21035;-45
2024/04/18 12:16:55;;;;;;;6.15;2.77;;;;;;;;;;1897779;75;21064;-47
2024/04/18 12:19:25;;;;;;;5.00;2.85;;;;;;;;;;1886349;75;21204;-50
2024/04/18 12:21:53;;;;;;;10.03;2.80;;;;;;;;;;1901662;75;21111;-49
2024/04/18 12:24:22;;;;;;;9.00;3.08;;;;;;;;;;1896547;75;21185;-48
2024/04/18 12:26:52;;;;;;;9.70;3.12;;;;;;;;;;1894080;75;21063;-46
2024/04/18 12:29:22;;;;;;;10.58;2.98;;;;;;;;;;1887935;75;21075;-46
2024/04/18 12:31:59;;;;;;;7.30;2.95;;;;;;;;;;1897930;75;21503;-46
2024/04/18 12:34:29;;;;;;;19.73;4.25;;;;;;;;;;1892107;75;21625;-46
2024/04/18 12:37:06;;;;;;;6.00;2.62;;;;;;;;;;1899121;75;21020;-46
2024/04/18 12:39:36;;;;;;;9.48;3.58;;;;;;;;;;1898619;75;21021;-46
2024/04/18 12:42:06;;;;;;;12.20;4.58;;;;;;;;;;1884490;75;21202;-46
2024/04/18 12:44:36;;;;;;;10.13;4.40;;;;;;;;;;1882093;75;21185;-46
2024/04/18 12:47:07;;;;;;;12.28;3.55;;;;;;;;;;1877779;76;21072;-46
2024/04/18 12:49:40;;;;;;;18.95;5.05;;;;;;;;;;1879520;76;21028;-46
2024/04/18 12:52:07;;;;;;;15.90;4.33;;;;;;;;;;1881822;76;21552;-45
2024/04/18 12:54:36;;;;;;;20.02;5.58;;;;;;;;;;1882125;75;21020;-45
2024/04/18 12:57:05;;;;;;;7.62;2.95;;;;;;;;;;1882249;76;21105;-46
2024/04/18 12:59:35;;;;;;;11.97;3.27;;;;;;;;;;1876902;76;21136;-46
2024/04/18 13:02:05;;;;;;;19.17;5.92;;;;;;;;;;1876787;76;21045;-45
2024/04/18 13:04:38;;;;;;;6.00;3.00;;;;;;;;;;1881157;75;21134;-45
2024/04/18 13:07:06;;;;;;;19.37;3.80;;;;;;;;;;1881378;76;21627;-47
2024/04/18 13:09:34;;;;;;;8.90;3.30;;;;;;;;;;1882255;76;21020;-46
2024/04/18 13:12:03;;;;;;;7.97;2.75;;;;;;;;;;1882257;76;21036;-45
2024/04/18 13:14:50;;;;;;;8.58;3.10;;;;;;;;;;1882362;76;21143;-45
2024/04/18 13:17:18;;;;;;;10.63;3.17;;;;;;;;;;1882398;76;21008;-45
2024/04/18 13:19:47;;;;;;;8.25;3.35;;;;;;;;;;1882294;76;21024;-45
2024/04/18 13:22:16;;;;;;;11.05;3.22;;;;;;;;;;1882288;76;21147;-45
2024/04/18 13:24:47;;;;;;;13.65;3.45;;;;;;;;;;1891111;75;21006;-44
2024/04/18 13:27:29;;;;;;;10.32;3.10;;;;;;;;;;1900034;74;21073;-44
2024/04/18 13:29:58;;;;;;;8.30;3.17;;;;;;;;;;1899550;75;21002;-45
2024/04/18 13:32:39;;;;;;;7.22;2.92;;;;;;;;;;1898501;75;21033;-45
2024/04/18 13:35:07;;;;;;;8.20;3.65;;;;;;;;;;1910706;75;21080;-45
2024/04/18 13:37:36;;;;;;;8.23;3.40;;;;;;;;;;1914724;75;20986;-45
2024/04/18 13:40:19;;;;;;;13.20;3.70;;;;;;;;;;1914762;75;21084;-45
2024/04/18 13:42:58;;;;;;;7.20;3.20;;;;;;;;;;1914782;74;21050;-45
2024/04/18 13:45:31;;;;;;;14.05;4.03;;;;;;;;;;1893917;75;21103;-45
2024/04/18 13:48:03;;;;;;;11.03;3.52;;;;;;;;;;1887339;75;21113;-46
2024/04/18 13:50:44;;;;;;;7.47;3.10;;;;;;;;;;1891233;75;21087;-45
2024/04/18 13:53:13;;;;;;;8.33;3.45;;;;;;;;;;1889531;75;21007;-45
2024/04/18 13:55:48;;;;;;;13.15;3.40;;;;;;;;;;1900858;75;21090;-46
2024/04/18 13:58:18;;;;;;;12.60;4.12;;;;;;;;;;1905402;75;21012;-46
2024/04/18 14:01:00;;;;;;;13.22;4.00;;;;;;;;;;1905518;75;21012;-46
2024/04/18 14:03:30;;;;;;;11.93;3.85;;;;;;;;;;1905599;75;21004;-45
2024/04/18 14:06:06;;;;;;;10.20;3.12;;;;;;;;;;1905414;75;21028;-46
2024/04/18 14:08:38;;;;;;;14.10;3.20;;;;;;;;;;1905396;75;21071;-46
2024/04/18 14:11:26;;;;;;;11.15;3.37;;;;;;;;;;1905320;75;21031;-46
2024/04/18 14:13:56;;;;;;;17.30;4.37;;;;;;;;;;1869364;75;21038;-46
2024/04/18 14:19:33;;;;;;;12.73;3.72;;;;;;;;;;1905383;75;21035;-46
2024/04/18 14:22:10;;;;;;;17.05;3.77;;;;;;;;;;1905317;75;21086;-46
2024/04/18 14:24:36;;;;;;;15.28;3.90;;;;;;;;;;1894876;74;21443;-46
2024/04/18 14:27:05;;;;;;;13.85;4.55;;;;;;;;;;1887323;75;21016;-45
2024/04/18 14:29:35;;;;;;;14.10;3.37;;;;;;;;;;1892455;75;21019;-45
2024/04/18 14:32:07;;;;;;;12.33;3.58;;;;;;;;;;1884167;75;21117;-47
2024/04/18 14:34:54;;;;;;;8.70;3.25;;;;;;;;;;1887993;75;21136;-45
2024/04/18 14:37:22;;;;;;;11.03;3.72;;;;;;;;;;1887829;75;21109;-46
2024/04/18 14:39:51;;;;;;;8.88;2.87;;;;;;;;;;1890661;75;21156;-45
2024/04/18 14:42:19;;;;;;;6.67;2.87;;;;;;;;;;1889870;74;21113;-45
2024/04/18 14:44:48;;;;;;;9.03;3.60;;;;;;;;;;1906116;74;21118;-46
2024/04/18 14:47:17;;;;;;;7.60;3.33;;;;;;;;;;1908075;74;21086;-46
2024/04/18 14:49:57;;;;;;;10.38;2.87;;;;;;;;;;1905837;74;21141;-45
2024/04/18 14:52:35;;;;;;;16.48;3.42;;;;;;;;;;1907268;74;21028;-45
2024/04/18 14:55:24;;;;;;;16.80;3.47;;;;;;;;;;1908904;74;21184;-45
2024/04/18 14:57:52;;;;;;;7.47;2.50;;;;;;;;;;1909697;74;21508;-45
2024/04/18 15:00:23;;;;;;;11.68;3.17;;;;;;;;;;1908817;74;21150;-45
2024/04/18 15:02:51;;;;;;;13.95;3.25;;;;;;;;;;1906379;74;21090;-44
2024/04/18 15:05:37;;;;;;;8.30;2.72;;;;;;;;;;1907809;74;21098;-45
2024/04/18 15:08:07;;;;;;;14.63;4.40;;;;;;;;;;1906806;74;21165;-44
2024/04/18 15:10:48;;;;;;;9.90;3.12;;;;;;;;;;1906209;74;21024;-46
2024/04/18 15:13:17;;;;;;;18.05;5.60;;;;;;;;;;1908306;74;21027;-45